YQB weather

Quebec Jean Lesage International Airport
Quebec, Quebec, Canada

Public forecast

Using degrees Celsius for public forecast. Weather courtesy of forecast.io.

METAR (pilot weather report)

Retrieved 2019/03/26 22:00 UTC (16 minutes ago):

CYQB 262200Z 24018G23KT 30SM SKC M03/M12 A3023 RMK SLP243

TAF (pilot weather forecast)

Retrieved 2019/03/26 18:42 UTC (4 hours ago):

TAF CYQB 261738Z 2618/2718 24015G25KT P6SM SKC BECMG 2622/2624 29008KT BECMG 2704/2706 21005KT FM271600 23010G20KT P6SM FEW130 RMK NXT FCST BY 270000Z